Terminal Aerodrome Forecast
Issued by NWS Mt. Holly, NJ

Home | Current Version | Previous Version | Text Only | Print | Product List | Glossary On
Versions: 1 2 3 4 5 6 7 8 9 10 11 12 13 14 15 16 17 18 19 20 21 22 23
481
FTUS41 KPHI 160527
TAFILG
TAF
KILG 160527Z 1606/1706 VRB04KT P6SM SKC
      TEMPO 1606/1609 4SM BR
     FM161500 24010KT P6SM BKN080
     FM170100 26006KT P6SM BKN050=

USA.gov is the U.S. government's official web portal to all federal, state and local government web resources and services.